Time;durP1;ratioP1;P1;durP2;ratioP2;P2;SDS_P1;SDS_P2;PMS_P1;PMS_P2;Temp;Humidity;BMP_temperature;BMP_pressure;BME280_temperature;BME280_humidity;BME280_pressure;Samples;Min_cycle;Max_cycle;Signal;HPM_P1;HPM_P2
2022/04/07 00:00:39;;;;;;;11.25;7.25;;;;;;;9.04;71.55;99026.78;1756306;78;21082;-83
2022/04/07 00:03:07;;;;;;;16.23;6.90;;;;;;;9.03;71.54;99014.55;1772387;80;21328;-82
2022/04/07 00:05:34;;;;;;;10.60;6.97;;;;;;;9.02;71.55;99010.61;1775403;80;21067;-83
2022/04/07 00:08:01;;;;;;;11.40;6.30;;;;;;;9.01;71.53;99002.27;1754594;80;21799;-83
2022/04/07 00:10:28;;;;;;;13.48;6.60;;;;;;;8.98;71.54;99002.28;1750683;80;21403;-83
2022/04/07 00:12:55;;;;;;;13.32;6.60;;;;;;;8.95;71.59;98996.16;1774698;80;21052;-83
2022/04/07 00:15:23;;;;;;;11.12;7.05;;;;;;;8.94;71.61;98992.21;1796795;79;20980;-90
2022/04/07 00:17:50;;;;;;;11.53;6.78;;;;;;;8.92;71.63;98986.95;1772587;79;21069;-89
2022/04/07 00:20:16;;;;;;;10.25;5.87;;;;;;;8.92;71.67;98986.95;1738889;80;21241;-90
2022/04/07 00:22:44;;;;;;;10.25;6.42;;;;;;;8.91;71.70;98980.38;1770230;79;21062;-90
2022/04/07 00:25:11;;;;;;;8.68;6.08;;;;;;;8.91;71.78;98976.00;1755679;81;21044;-89
2022/04/07 00:27:38;;;;;;;9.30;5.90;;;;;;;8.90;71.78;98978.20;1778458;80;21893;-90
2022/04/07 00:30:06;;;;;;;12.05;6.85;;;;;;;8.91;71.79;98972.52;1803157;79;21104;-91
2022/04/07 00:32:33;;;;;;;9.05;5.83;;;;;;;8.89;71.81;98969.88;1799591;79;21373;-90
2022/04/07 00:35:00;;;;;;;8.73;5.70;;;;;;;8.91;71.85;98971.20;1723349;82;21114;-90
2022/04/07 00:37:26;;;;;;;9.25;5.15;;;;;;;8.90;71.89;98966.40;1774020;79;21035;-90
2022/04/07 00:39:58;;;;;;;10.48;5.35;;;;;;;8.90;71.88;98960.28;1737660;81;21091;-89
2022/04/07 00:42:24;;;;;;;10.50;5.08;;;;;;;8.89;71.93;98959.83;1730659;82;21250;-90
2022/04/07 00:44:51;;;;;;;9.35;5.67;;;;;;;8.90;71.95;98964.22;1762799;79;21762;-82
2022/04/07 00:47:19;;;;;;;12.78;5.60;;;;;;;8.89;71.99;98959.38;1765186;79;21482;-91
2022/04/07 00:49:46;;;;;;;9.13;5.58;;;;;;;8.88;71.98;98955.02;1732440;81;21552;-83
2022/04/07 00:52:13;;;;;;;9.58;5.62;;;;;;;8.88;71.94;98958.09;1748925;80;21464;-83
2022/04/07 00:54:40;;;;;;;10.15;5.28;;;;;;;8.85;71.96;98958.94;1746633;81;21071;-83
2022/04/07 00:57:07;;;;;;;6.97;5.17;;;;;;;8.83;71.99;98955.88;1736383;80;21706;-83
2022/04/07 00:59:34;;;;;;;10.25;5.60;;;;;;;8.82;72.04;98949.77;1734067;82;21024;-90
2022/04/07 01:02:03;;;;;;;9.20;5.65;;;;;;;8.82;72.02;98952.80;1773671;80;21043;-90
2022/04/07 01:04:29;;;;;;;13.32;5.92;;;;;;;8.79;72.11;98948.87;1702027;80;21711;-83
2022/04/07 01:06:56;;;;;;;8.40;5.20;;;;;;;8.77;72.10;98946.69;1748860;79;21034;-82
2022/04/07 01:09:23;;;;;;;12.30;6.08;;;;;;;8.73;72.16;98938.80;1747017;80;22601;-84
2022/04/07 01:11:51;;;;;;;11.05;5.97;;;;;;;8.69;72.19;98942.29;1735113;82;21018;-83
2022/04/07 01:14:18;;;;;;;12.18;5.58;;;;;;;8.66;72.22;98934.39;1742325;80;21087;-83
2022/04/07 01:16:45;;;;;;;10.60;5.92;;;;;;;8.62;72.26;98933.95;1743178;80;21058;-83
2022/04/07 01:19:11;;;;;;;14.10;6.20;;;;;;;8.59;72.31;98937.00;1782961;79;21537;-90
2022/04/07 01:21:42;;;;;;;11.12;6.62;;;;;;;8.56;72.35;98933.94;1789680;80;21723;-90
2022/04/07 01:24:11;;;;;;;11.53;6.22;;;;;;;8.52;72.36;98931.73;1786564;79;21110;-91
2022/04/07 01:26:40;;;;;;;9.28;5.65;;;;;;;8.46;72.39;98922.51;1786874;80;21020;-89
2022/04/07 01:29:11;;;;;;;8.68;5.53;;;;;;;8.41;72.44;98924.23;1785466;80;21937;-89
2022/04/07 01:31:38;;;;;;;10.82;6.17;;;;;;;8.35;72.52;98919.83;1770005;79;21031;-89
2022/04/07 01:34:08;;;;;;;13.10;6.45;;;;;;;8.31;72.54;98920.66;1782163;80;21703;-90
2022/04/07 01:36:37;;;;;;;14.33;6.33;;;;;;;8.26;72.61;98914.95;1775918;77;21506;-91
2022/04/07 01:39:04;;;;;;;13.15;6.67;;;;;;;8.20;72.69;98913.18;1827416;78;21600;-92
2022/04/07 01:41:31;;;;;;;11.08;6.30;;;;;;;8.15;72.79;98911.00;1828663;78;20991;-91
2022/04/07 01:43:58;;;;;;;11.65;5.87;;;;;;;8.10;72.87;98909.64;1802883;77;21543;-90
2022/04/07 01:46:25;;;;;;;13.13;6.92;;;;;;;8.07;72.95;98910.05;1830031;77;21692;-91
2022/04/07 01:48:52;;;;;;;11.05;6.78;;;;;;;8.03;73.04;98910.91;1808535;77;21070;-91
2022/04/07 01:51:18;;;;;;;9.15;6.17;;;;;;;8.00;73.14;98909.16;1811326;78;21137;-81
2022/04/07 01:53:45;;;;;;;13.03;7.83;;;;;;;7.96;73.16;98908.27;1795551;78;21750;-82
2022/04/07 01:56:13;;;;;;;17.55;9.00;;;;;;;7.93;73.26;98906.92;1816565;78;21019;-82
2022/04/07 01:58:43;;;;;;;12.90;7.42;;;;;;;7.91;73.32;98906.05;1801130;77;22985;-82
2022/04/07 02:01:10;;;;;;;17.73;10.75;;;;;;;7.88;73.36;98898.19;1816523;77;21112;-89
2022/04/07 02:03:37;;;;;;;14.55;8.45;;;;;;;7.85;73.42;98894.23;1835722;78;21871;-91
2022/04/07 02:06:15;;;;;;;15.28;8.93;;;;;;;7.83;73.46;98896.37;1827030;78;20992;-91
2022/04/07 02:08:42;;;;;;;16.50;9.45;;;;;;;7.79;73.49;98897.69;1805800;77;21054;-89
2022/04/07 02:11:10;;;;;;;24.30;13.22;;;;;;;7.75;73.51;98899.85;1817022;78;21681;-90
2022/04/07 02:13:50;;;;;;;15.55;8.55;;;;;;;7.71;73.58;98895.87;1831565;78;21032;-88
2022/04/07 02:16:19;;;;;;;11.35;6.62;;;;;;;7.69;73.64;98898.48;1829454;77;21086;-82
2022/04/07 02:18:45;;;;;;;14.60;7.72;;;;;;;7.65;73.66;98898.46;1786908;78;21066;-89
2022/04/07 02:21:12;;;;;;;12.18;6.22;;;;;;;7.62;73.70;98898.02;1792483;78;21042;-88
2022/04/07 02:23:42;;;;;;;15.88;9.73;;;;;;;7.58;73.74;98900.14;1837028;77;22560;-89
2022/04/07 02:26:12;;;;;;;18.40;11.12;;;;;;;7.54;73.75;98890.52;1813749;78;21034;-88
2022/04/07 02:28:39;;;;;;;12.55;7.53;;;;;;;7.52;73.79;98893.56;1822904;78;21039;-90
2022/04/07 02:31:07;;;;;;;15.43;8.20;;;;;;;7.50;73.87;98895.30;1790537;78;21570;-88
2022/04/07 02:33:34;;;;;;;12.10;6.62;;;;;;;7.48;73.93;98893.10;1804471;78;21068;-82
2022/04/07 02:36:05;;;;;;;14.03;8.45;;;;;;;7.46;73.99;98890.47;1828723;78;21739;-84
2022/04/07 02:38:31;;;;;;;19.95;9.43;;;;;;;7.47;74.01;98888.72;1775202;79;21136;-84
2022/04/07 02:40:58;;;;;;;14.35;7.92;;;;;;;7.46;74.04;98881.30;1781022;79;21096;-83
2022/04/07 02:43:25;;;;;;;15.85;8.45;;;;;;;7.45;74.02;98882.19;1799738;79;21010;-90
2022/04/07 02:45:52;;;;;;;15.50;9.95;;;;;;;7.41;74.03;98884.31;1781251;79;21088;-90
2022/04/07 02:48:18;;;;;;;14.98;8.25;;;;;;;7.38;74.05;98883.00;1799352;79;21732;-89
2022/04/07 02:50:45;;;;;;;15.40;8.73;;;;;;;7.34;74.09;98886.02;1781480;79;21121;-89
2022/04/07 02:53:14;;;;;;;14.95;8.08;;;;;;;7.29;74.13;98883.79;1800603;79;21053;-82
2022/04/07 02:55:41;;;;;;;16.15;7.92;;;;;;;7.27;74.17;98888.58;1791599;79;21025;-88
2022/04/07 02:58:07;;;;;;;14.58;8.53;;;;;;;7.25;74.24;98889.88;1788988;79;21144;-82
2022/04/07 03:00:34;;;;;;;11.38;6.92;;;;;;;7.22;74.24;98879.81;1790994;78;22579;-82
2022/04/07 03:03:02;;;;;;;13.75;6.40;;;;;;;7.18;74.25;98875.84;1781290;79;21559;-82
2022/04/07 03:05:28;;;;;;;23.07;10.38;;;;;;;7.14;74.26;98876.69;1794535;79;21155;-83
2022/04/07 03:07:55;;;;;;;15.78;9.80;;;;;;;7.11;74.32;98883.19;1795566;79;21075;-81
2022/04/07 03:10:22;;;;;;;17.40;9.60;;;;;;;7.08;74.43;98881.01;1783801;79;21064;-82
2022/04/07 03:12:49;;;;;;;12.85;8.03;;;;;;;7.06;74.46;98882.70;1788711;79;23069;-88
2022/04/07 03:15:16;;;;;;;10.98;6.35;;;;;;;7.04;74.51;98872.66;1791280;79;21045;-88
2022/04/07 03:17:42;;;;;;;11.78;6.83;;;;;;;6.99;74.49;98868.27;1799187;79;21041;-88
2022/04/07 03:20:10;;;;;;;25.40;13.68;;;;;;;6.94;74.48;98873.87;1760154;78;22225;-88
2022/04/07 03:22:37;;;;;;;22.93;11.83;;;;;;;6.89;74.55;98862.52;1795435;79;21128;-82
2022/04/07 03:25:04;;;;;;;25.17;12.28;;;;;;;6.82;74.66;98864.63;1796953;79;22591;-82
2022/04/07 03:27:31;;;;;;;17.12;10.13;;;;;;;6.78;74.73;98857.19;1786708;79;21203;-82
2022/04/07 03:29:58;;;;;;;19.25;7.87;;;;;;;6.75;74.84;98861.50;1782965;79;21089;-89
2022/04/07 03:32:25;;;;;;;17.70;10.53;;;;;;;6.74;74.97;98856.72;1781444;79;21053;-90
2022/04/07 03:34:52;;;;;;;16.17;9.13;;;;;;;6.74;75.12;98857.16;1789857;79;21128;-82
2022/04/07 03:37:20;;;;;;;15.98;10.23;;;;;;;6.77;75.25;98859.34;1788725;78;21888;-82
2022/04/07 03:39:49;;;;;;;14.50;8.55;;;;;;;6.80;75.32;98854.59;1792556;78;21354;-82
2022/04/07 03:42:16;;;;;;;14.73;7.25;;;;;;;6.83;75.35;98856.34;1766363;79;21052;-82
2022/04/07 03:44:44;;;;;;;18.57;11.22;;;;;;;6.86;75.36;98855.08;1791831;78;21117;-82
2022/04/07 03:47:10;;;;;;;11.83;8.33;;;;;;;6.86;75.32;98848.54;1807536;78;21069;-82
2022/04/07 03:49:38;;;;;;;16.23;9.98;;;;;;;6.84;75.24;98846.34;1787493;79;22389;-82
2022/04/07 03:52:06;;;;;;;17.85;10.50;;;;;;;6.79;75.23;98845.88;1776045;78;22269;-89
2022/04/07 03:54:33;;;;;;;14.68;8.03;;;;;;;6.75;75.26;98847.98;1775222;79;21554;-87
2022/04/07 03:57:00;;;;;;;13.32;7.53;;;;;;;6.72;75.32;98854.92;1780181;78;21072;-91
2022/04/07 03:59:28;;;;;;;13.48;7.22;;;;;;;6.69;75.40;98849.69;1797546;79;21132;-82
2022/04/07 04:01:55;;;;;;;16.52;11.53;;;;;;;6.66;75.50;98845.28;1795531;78;21716;-88
2022/04/07 04:04:22;;;;;;;15.63;9.73;;;;;;;6.63;75.57;98843.97;1803127;79;21099;-90
2022/04/07 04:06:49;;;;;;;17.70;9.78;;;;;;;6.63;75.67;98834.81;1797269;78;21124;-89
2022/04/07 04:09:17;;;;;;;13.78;7.92;;;;;;;6.60;75.68;98844.79;1785626;78;21590;-82
2022/04/07 04:11:44;;;;;;;17.52;10.25;;;;;;;6.57;75.67;98837.38;1791980;79;21076;-80
2022/04/07 04:14:10;;;;;;;10.60;7.22;;;;;;;6.57;75.74;98838.69;1790468;78;21581;-86
2022/04/07 04:16:37;;;;;;;11.55;6.58;;;;;;;6.55;75.80;98838.66;1794626;79;21083;-81
2022/04/07 04:19:04;;;;;;;12.68;7.25;;;;;;;6.55;75.90;98837.77;1795184;79;21611;-80
2022/04/07 04:21:31;;;;;;;11.20;6.83;;;;;;;6.54;75.90;98837.33;1794372;78;21093;-82
2022/04/07 04:23:58;;;;;;;9.03;6.15;;;;;;;6.56;75.93;98834.30;1793655;78;21068;-81
2022/04/07 04:26:24;;;;;;;13.32;7.45;;;;;;;6.57;75.95;98830.40;1788403;77;21739;-79
2022/04/07 04:28:51;;;;;;;13.03;6.87;;;;;;;6.59;76.01;98830.42;1790010;77;21089;-89
2022/04/07 04:31:20;;;;;;;11.12;7.12;;;;;;;6.63;76.10;98823.48;1798089;79;21093;-89
2022/04/07 04:33:46;;;;;;;13.90;7.00;;;;;;;6.71;76.19;98823.12;1790183;78;21077;-88
2022/04/07 04:36:13;;;;;;;13.88;7.67;;;;;;;6.81;76.20;98824.53;1787490;78;21126;-80
2022/04/07 04:38:40;;;;;;;9.70;7.33;;;;;;;6.99;76.42;98823.80;1781330;78;21717;-89
2022/04/07 04:41:07;;;;;;;12.28;6.17;;;;;;;7.58;77.05;98817.26;1774305;78;21088;-86
2022/04/07 04:43:34;;;;;;;10.18;6.92;;;;;;;8.28;76.92;98822.81;1789774;78;21069;-87
2022/04/07 04:46:01;;;;;;;12.78;7.10;;;;;;;8.73;75.83;98820.76;1779963;78;21069;-78
2022/04/07 04:48:28;;;;;;;15.58;8.68;;;;;;;9.38;76.06;98818.56;1769147;78;21713;-86
2022/04/07 04:50:57;;;;;;;10.85;7.60;;;;;;;10.26;75.66;98810.84;1781332;78;22522;-79
2022/04/07 04:53:24;;;;;;;11.88;7.92;;;;;;;11.00;74.45;98810.84;1780298;78;21133;-86
2022/04/07 04:55:51;;;;;;;12.58;8.28;;;;;;;11.20;72.87;98812.00;1788045;78;21076;-80
2022/04/07 04:58:18;;;;;;;14.20;8.53;;;;;;;11.79;73.00;98809.23;1782396;78;21060;-84
2022/04/07 05:00:45;;;;;;;12.13;6.90;;;;;;;12.48;72.10;98807.54;1783206;79;21064;-80
2022/04/07 05:03:11;;;;;;;10.63;6.87;;;;;;;12.85;70.71;98809.62;1772818;78;21796;-85
2022/04/07 05:05:38;;;;;;;13.78;8.40;;;;;;;12.94;69.75;98812.12;1778805;79;21050;-86
2022/04/07 05:08:06;;;;;;;12.98;8.13;;;;;;;12.71;68.50;98814.25;1784403;79;21062;-81
2022/04/07 05:10:33;;;;;;;17.42;9.00;;;;;;;12.31;68.09;98820.92;1787305;79;21089;-89
2022/04/07 05:13:09;;;;;;;20.72;10.82;;;;;;;11.97;67.76;98820.03;1790386;79;21112;-89
2022/04/07 05:15:40;;;;;;;20.30;10.48;;;;;;;11.63;67.60;98818.19;1776388;79;21132;-83
2022/04/07 05:18:08;;;;;;;19.00;10.80;;;;;;;11.24;67.77;98810.66;1762873;79;21019;-89
2022/04/07 05:20:35;;;;;;;24.77;11.97;;;;;;;11.03;67.97;98812.14;1782402;79;21053;-80
2022/04/07 05:23:02;;;;;;;22.50;12.85;;;;;;;10.78;67.93;98813.65;1778978;79;21360;-88
2022/04/07 05:25:29;;;;;;;22.87;12.55;;;;;;;10.60;68.12;98813.31;1793845;79;22289;-80
2022/04/07 05:27:55;;;;;;;18.77;11.12;;;;;;;10.46;68.18;98817.36;1794459;78;22535;-80
2022/04/07 05:30:22;;;;;;;17.23;11.15;;;;;;;10.30;68.31;98811.31;1764189;79;21076;-89
2022/04/07 05:32:49;;;;;;;12.15;7.95;;;;;;;10.22;68.57;98816.14;1795691;79;21588;-80
2022/04/07 05:35:17;;;;;;;10.48;7.65;;;;;;;10.17;68.80;98813.52;1787052;78;21579;-80
2022/04/07 05:37:44;;;;;;;11.28;7.53;;;;;;;10.16;68.78;98816.17;1779984;78;21076;-89
2022/04/07 05:40:13;;;;;;;13.78;7.75;;;;;;;10.08;68.76;98808.33;1788345;79;21857;-90
2022/04/07 05:42:40;;;;;;;15.32;7.65;;;;;;;10.03;68.82;98807.01;1770073;80;21125;-88
2022/04/07 05:45:08;;;;;;;13.30;6.83;;;;;;;9.98;68.79;98801.34;1793034;77;21589;-89
2022/04/07 05:47:41;;;;;;;10.38;6.33;;;;;;;9.90;68.84;98807.49;1795581;77;21290;-89
2022/04/07 05:50:09;;;;;;;11.35;7.20;;;;;;;9.86;68.92;98812.78;1744878;80;21796;-80
2022/04/07 05:52:36;;;;;;;12.33;6.78;;;;;;;9.87;69.06;98805.31;1798915;77;23099;-81
2022/04/07 05:55:03;;;;;;;8.58;6.17;;;;;;;9.87;69.00;98797.02;1761705;79;21094;-80
2022/04/07 05:57:30;;;;;;;9.85;6.53;;;;;;;9.86;69.03;98794.38;1797664;79;21054;-80
2022/04/07 06:00:07;;;;;;;10.55;7.35;;;;;;;9.84;69.06;98787.81;1793513;79;21066;-88
2022/04/07 06:02:35;;;;;;;10.48;5.97;;;;;;;9.89;69.18;98793.94;1790726;79;21044;-88
2022/04/07 06:05:03;;;;;;;13.95;7.12;;;;;;;9.96;69.18;98786.02;1789179;79;22553;-89
2022/04/07 06:07:31;;;;;;;13.68;7.60;;;;;;;10.00;69.18;98779.41;1763363;80;21045;-89
2022/04/07 06:10:01;;;;;;;11.63;6.47;;;;;;;10.09;69.30;98777.20;1769712;80;21050;-89
2022/04/07 06:12:27;;;;;;;13.03;7.15;;;;;;;10.30;69.34;98772.26;1777467;79;21458;-89
2022/04/07 06:14:54;;;;;;;13.28;6.55;;;;;;;10.49;69.23;98770.42;1784171;79;21046;-81
2022/04/07 06:17:24;;;;;;;11.53;6.60;;;;;;;10.64;69.05;98766.39;1748221;81;22538;-80
2022/04/07 06:19:51;;;;;;;10.25;6.60;;;;;;;10.74;68.83;98765.87;1746306;80;21571;-89
2022/04/07 06:22:19;;;;;;;11.25;6.67;;;;;;;10.76;68.56;98762.79;1781497;79;21579;-90
2022/04/07 06:24:49;;;;;;;11.97;6.15;;;;;;;10.81;68.51;98761.00;1762599;80;21157;-89
2022/04/07 06:27:16;;;;;;;12.05;6.72;;;;;;;10.94;68.51;98760.88;1746121;80;21142;-88
2022/04/07 06:29:43;;;;;;;12.05;6.28;;;;;;;11.14;68.56;98761.58;1759528;80;21567;-89
2022/04/07 06:32:10;;;;;;;16.67;8.13;;;;;;;11.35;68.33;98753.05;1760294;80;21112;-88
2022/04/07 06:34:36;;;;;;;21.65;12.07;;;;;;;11.48;68.06;98748.08;1771915;80;21133;-89
2022/04/07 06:37:03;;;;;;;22.93;10.90;;;;;;;11.64;67.87;98752.75;1767085;80;21103;-88
2022/04/07 06:39:30;;;;;;;10.98;7.22;;;;;;;11.80;67.71;98749.47;1763043;80;20994;-89
2022/04/07 06:41:58;;;;;;;30.37;14.83;;;;;;;12.02;67.60;98746.16;1759587;81;21801;-81
2022/04/07 06:44:24;;;;;;;23.92;11.18;;;;;;;12.22;67.36;98752.04;1765840;81;21102;-81
2022/04/07 06:46:51;;;;;;;16.50;8.75;;;;;;;12.34;66.96;98747.03;1769347;80;21137;-80
2022/04/07 06:49:18;;;;;;;21.90;10.55;;;;;;;12.36;66.46;98749.20;1750324;80;21593;-82
2022/04/07 06:51:45;;;;;;;26.45;13.85;;;;;;;12.37;66.37;98740.83;1785199;79;21054;-81
2022/04/07 06:54:12;;;;;;;20.32;12.13;;;;;;;12.30;65.96;98737.42;1794136;79;21807;-81
2022/04/07 06:56:39;;;;;;;22.32;11.43;;;;;;;12.26;65.91;98737.05;1791386;79;21054;-82
2022/04/07 06:59:07;;;;;;;32.42;16.02;;;;;;;12.26;65.80;98738.36;1799767;79;21109;-81
2022/04/07 07:01:34;;;;;;;24.23;14.63;;;;;;;12.28;65.76;98731.30;1791322;78;21587;-80
2022/04/07 07:04:01;;;;;;;26.93;17.32;;;;;;;12.34;65.79;98727.70;1782165;79;21060;-81
2022/04/07 07:06:28;;;;;;;19.37;10.25;;;;;;;12.37;65.62;98718.40;1784455;79;21908;-82
2022/04/07 07:08:54;;;;;;;16.27;8.88;;;;;;;12.40;65.60;98711.31;1791176;79;21060;-82
2022/04/07 07:11:23;;;;;;;19.73;12.45;;;;;;;12.45;65.44;98705.52;1770475;79;21181;-81
2022/04/07 07:13:50;;;;;;;21.23;11.95;;;;;;;12.46;65.39;98695.83;1793604;79;21116;-80
2022/04/07 07:16:18;;;;;;;18.82;10.05;;;;;;;12.52;65.43;98693.13;1770644;79;21069;-80
2022/04/07 07:18:45;;;;;;;20.70;10.63;;;;;;;12.57;65.20;98700.49;1793700;79;23224;-80
2022/04/07 07:21:12;;;;;;;25.08;14.35;;;;;;;12.54;64.93;98683.87;1796571;79;21070;-80
2022/04/07 07:23:39;;;;;;;27.05;16.20;;;;;;;12.52;64.84;98685.20;1780507;78;21063;-80
2022/04/07 07:26:05;;;;;;;17.87;11.40;;;;;;;12.54;64.88;98683.41;1790757;79;21066;-79
2022/04/07 07:28:32;;;;;;;20.77;10.78;;;;;;;12.60;64.94;98674.06;1795127;79;21528;-88
2022/04/07 07:31:00;;;;;;;13.30;8.30;;;;;;;12.70;64.84;98665.99;1788954;79;21592;-88
2022/04/07 07:33:29;;;;;;;15.48;10.23;;;;;;;12.78;64.75;98660.13;1792310;78;21046;-89
2022/04/07 07:35:56;;;;;;;15.60;8.53;;;;;;;12.84;64.55;98662.67;1780338;79;21137;-88
2022/04/07 07:38:23;;;;;;;15.90;10.08;;;;;;;12.89;64.45;98653.34;1776638;79;21114;-88
2022/04/07 07:40:49;;;;;;;16.45;10.20;;;;;;;12.97;64.43;98657.59;1780286;79;21093;-88
2022/04/07 07:43:21;;;;;;;21.97;14.23;;;;;;;13.02;64.07;98649.57;1795068;79;21996;-89
2022/04/07 07:45:50;;;;;;;19.37;13.90;;;;;;;13.03;63.93;98654.83;1790377;79;20984;-89
2022/04/07 07:48:15;;;;;;;16.42;8.60;;;;;;;13.03;63.76;98642.94;1789227;79;21086;-89
2022/04/07 07:50:48;;;;;;;19.85;12.30;;;;;;;13.06;63.71;98651.25;1792936;78;22212;-88
2022/04/07 07:53:16;;;;;;;22.85;12.82;;;;;;;13.10;63.56;98656.03;1789135;79;21014;-88
2022/04/07 07:55:42;;;;;;;14.47;10.13;;;;;;;13.16;63.64;98646.69;1779007;79;21827;-88
2022/04/07 07:58:09;;;;;;;15.08;11.28;;;;;;;13.23;63.54;98645.64;1797969;78;21046;-89
2022/04/07 08:00:37;;;;;;;10.30;8.35;;;;;;;13.30;63.46;98640.70;1792642;79;21586;-87
2022/04/07 08:03:04;;;;;;;16.95;11.25;;;;;;;13.34;63.14;98640.19;1785512;79;21175;-88
2022/04/07 08:05:31;;;;;;;14.73;8.40;;;;;;;13.23;62.96;98621.87;1782486;79;21093;-80
2022/04/07 08:07:58;;;;;;;17.77;10.10;;;;;;;13.39;62.86;98635.23;1787494;79;21841;-80
2022/04/07 08:10:24;;;;;;;12.78;8.70;;;;;;;13.45;62.82;98629.41;1783884;79;21079;-88
2022/04/07 08:12:51;;;;;;;10.88;6.67;;;;;;;13.45;62.46;98643.48;1780685;79;21101;-88
2022/04/07 08:15:19;;;;;;;11.25;8.03;;;;;;;13.52;62.54;98634.98;1786090;78;21073;-88
2022/04/07 08:17:46;;;;;;;9.03;6.58;;;;;;;13.59;62.46;98628.22;1789925;78;21128;-88
2022/04/07 08:20:14;;;;;;;16.82;10.43;;;;;;;13.63;62.09;98622.84;1788562;79;22564;-80
2022/04/07 08:22:41;;;;;;;19.80;13.72;;;;;;;13.67;62.13;98619.26;1789070;79;21051;-88
2022/04/07 08:25:08;;;;;;;11.57;6.83;;;;;;;13.82;62.22;98614.95;1757960;79;21078;-88
2022/04/07 08:27:35;;;;;;;12.10;6.28;;;;;;;13.98;62.11;98611.05;1764211;81;21536;-80
2022/04/07 08:30:03;;;;;;;12.53;8.95;;;;;;;14.10;61.78;98610.35;1764015;80;21124;-88
2022/04/07 08:32:33;;;;;;;11.43;7.25;;;;;;;14.24;61.68;98614.84;1763642;79;21756;-89
2022/04/07 08:35:03;;;;;;;10.55;6.25;;;;;;;14.36;61.26;98612.37;1788071;79;21081;-88
2022/04/07 08:37:30;;;;;;;10.15;7.22;;;;;;;14.43;60.90;98604.66;1789839;79;21007;-88
2022/04/07 08:39:56;;;;;;;15.20;9.68;;;;;;;14.52;60.83;98602.25;1758494;80;21075;-90
2022/04/07 08:42:23;;;;;;;13.93;8.78;;;;;;;14.63;60.54;98600.69;1763559;80;21723;-88
2022/04/07 08:44:50;;;;;;;10.13;6.25;;;;;;;14.69;60.28;98603.17;1765273;80;22613;-88
2022/04/07 08:47:18;;;;;;;8.85;5.67;;;;;;;14.80;60.16;98594.48;1769176;79;21058;-79
2022/04/07 08:49:46;;;;;;;9.20;6.35;;;;;;;14.93;60.05;98591.05;1791155;79;21323;-79
2022/04/07 08:52:13;;;;;;;10.63;6.25;;;;;;;15.07;59.71;98598.61;1788154;79;21081;-82
2022/04/07 08:54:40;;;;;;;8.80;5.62;;;;;;;15.30;59.77;98594.88;1786414;78;21812;-79
2022/04/07 08:57:08;;;;;;;13.95;6.58;;;;;;;15.46;59.52;98593.09;1776561;78;21700;-80
2022/04/07 08:59:36;;;;;;;5.87;5.17;;;;;;;15.57;59.29;98583.03;1788006;79;21061;-89
2022/04/07 09:02:04;;;;;;;7.35;5.33;;;;;;;15.68;58.91;98589.35;1780044;79;21060;-89
2022/04/07 09:04:31;;;;;;;10.25;5.78;;;;;;;15.80;58.60;98596.95;1785980;79;21065;-80
2022/04/07 09:06:58;;;;;;;9.98;5.53;;;;;;;15.89;57.99;98584.73;1785947;79;21144;-80
2022/04/07 09:09:25;;;;;;;6.00;4.62;;;;;;;16.01;58.10;98579.52;1788611;79;21706;-81
2022/04/07 09:11:56;;;;;;;7.20;5.17;;;;;;;16.14;57.19;98577.30;1781265;79;21073;-80
2022/04/07 09:14:23;;;;;;;5.53;4.78;;;;;;;16.11;57.02;98568.14;1793050;79;21069;-79
2022/04/07 09:16:56;;;;;;;6.53;4.67;;;;;;;16.13;56.85;98571.61;1780663;79;21038;-90
2022/04/07 09:19:23;;;;;;;6.97;4.25;;;;;;;16.26;56.67;98574.27;1767798;79;21069;-89
2022/04/07 09:22:09;;;;;;;7.53;4.72;;;;;;;16.27;56.22;98561.41;1791483;78;21895;-81
2022/04/07 09:24:37;;;;;;;7.87;4.17;;;;;;;16.28;56.19;98568.91;1779721;78;21013;-89
2022/04/07 09:27:08;;;;;;;5.08;4.20;;;;;;;16.31;55.92;98562.15;1773839;78;21068;-81
2022/04/07 09:29:45;;;;;;;6.50;4.05;;;;;;;16.31;55.41;98560.82;1783312;78;21069;-81
2022/04/07 09:32:43;;;;;;;5.78;3.92;;;;;;;16.21;55.13;98567.37;1744546;80;21620;-81
2022/04/07 09:35:11;;;;;;;5.53;3.60;;;;;;;16.23;55.22;98564.20;1757214;79;22036;-87
2022/04/07 09:37:40;;;;;;;4.97;3.90;;;;;;;16.35;55.04;98565.14;1753685;79;21123;-88
2022/04/07 09:40:13;;;;;;;6.53;4.35;;;;;;;16.45;54.95;98561.70;1738616;80;21410;-89
2022/04/07 09:42:43;;;;;;;6.67;3.70;;;;;;;16.48;54.62;98549.66;1785818;77;21011;-88
2022/04/07 09:45:12;;;;;;;5.37;3.98;;;;;;;16.52;54.84;98541.52;1784515;77;21090;-81
2022/04/07 09:47:46;;;;;;;4.70;3.87;;;;;;;16.53;54.54;98539.72;1758460;79;21928;-81
2022/04/07 09:50:35;;;;;;;4.67;4.10;;;;;;;16.55;54.37;98533.89;1766411;78;21098;-80
2022/04/07 09:53:06;;;;;;;6.75;3.77;;;;;;;16.54;54.06;98532.18;1770529;79;21082;-82
2022/04/07 09:55:36;;;;;;;6.47;3.65;;;;;;;16.53;53.89;98531.75;1765116;78;21601;-81
2022/04/07 09:58:04;;;;;;;8.03;3.85;;;;;;;16.48;53.82;98519.12;1766431;81;21090;-80
2022/04/07 10:00:32;;;;;;;6.35;4.10;;;;;;;16.46;53.61;98507.66;1771224;79;21826;-80
2022/04/07 10:02:59;;;;;;;6.30;4.00;;;;;;;16.46;53.57;98491.73;1786710;79;21044;-88
2022/04/07 10:05:25;;;;;;;7.87;3.45;;;;;;;16.55;53.45;98507.81;1800867;79;21125;-89
2022/04/07 10:07:52;;;;;;;5.37;3.70;;;;;;;16.52;53.24;98493.72;1761027;80;21025;-89
2022/04/07 10:10:19;;;;;;;7.17;4.00;;;;;;;16.44;52.90;98494.90;1762351;79;21104;-89
2022/04/07 10:12:46;;;;;;;5.50;3.85;;;;;;;16.37;52.99;98492.94;1781583;78;22580;-89
2022/04/07 10:15:14;;;;;;;4.95;3.50;;;;;;;16.55;53.21;98478.59;1730932;79;21649;-89
2022/04/07 10:17:41;;;;;;;8.28;3.75;;;;;;;16.79;53.12;98488.80;1758127;79;21084;-89
2022/04/07 10:20:12;;;;;;;9.55;4.42;;;;;;;17.02;52.49;98484.84;1757325;80;21085;-81
2022/04/07 10:23:03;;;;;;;4.83;3.20;;;;;;;16.98;52.13;98479.72;1757643;80;21090;-89
2022/04/07 10:25:31;;;;;;;4.83;3.42;;;;;;;16.97;51.73;98482.84;1762389;79;21797;-81
2022/04/07 10:28:00;;;;;;;6.92;2.98;;;;;;;16.96;51.49;98473.12;1756012;78;21543;-81
2022/04/07 10:30:32;;;;;;;4.00;3.05;;;;;;;16.87;51.19;98464.16;1752942;81;21078;-81
2022/04/07 10:32:59;;;;;;;5.58;3.10;;;;;;;16.89;51.47;98454.34;1762077;81;21264;-81
2022/04/07 10:35:39;;;;;;;7.15;3.55;;;;;;;16.86;51.18;98452.68;1754129;78;21086;-89
2022/04/07 10:38:06;;;;;;;5.00;3.42;;;;;;;16.76;51.03;98440.64;1752722;78;21780;-89
2022/04/07 10:40:51;;;;;;;6.35;3.95;;;;;;;16.70;50.92;98433.77;1756287;78;21130;-89
2022/04/07 10:43:25;;;;;;;6.47;3.85;;;;;;;16.59;50.95;98441.27;1747136;80;21118;-89
2022/04/07 10:46:05;;;;;;;4.40;3.20;;;;;;;16.35;50.83;98437.70;1749310;79;21094;-81
2022/04/07 10:48:34;;;;;;;5.28;3.37;;;;;;;16.11;50.98;98439.42;1798189;79;21080;-81
2022/04/07 10:51:07;;;;;;;5.55;3.47;;;;;;;15.96;51.19;98439.48;1794392;79;22738;-81
2022/04/07 10:53:58;;;;;;;6.75;3.35;;;;;;;15.92;51.17;98425.45;1773440;79;22068;-81
2022/04/07 10:56:34;;;;;;;5.42;3.08;;;;;;;15.84;51.14;98431.48;1788297;79;21064;-81
2022/04/07 10:59:27;;;;;;;6.10;3.33;;;;;;;15.78;51.23;98425.04;1743202;79;21073;-81
2022/04/07 11:02:03;;;;;;;5.78;3.05;;;;;;;15.81;51.32;98412.16;1816929;78;21154;-81
2022/04/07 11:05:04;;;;;;;6.83;3.30;;;;;;;15.89;51.44;98403.47;1826899;77;21745;-80
2022/04/07 11:07:40;;;;;;;7.12;3.98;;;;;;;16.05;51.41;98389.23;1812040;78;21132;-80
2022/04/07 11:10:11;;;;;;;4.78;3.20;;;;;;;16.38;51.68;98380.48;1785854;78;21089;-81
2022/04/07 11:12:44;;;;;;;5.80;3.22;;;;;;;16.65;51.41;98374.62;1777347;80;21141;-81
2022/04/07 11:15:46;;;;;;;7.35;5.37;;;;;;;16.74;50.92;98383.16;1750759;80;21159;-82
2022/04/07 11:18:55;;;;;;;5.97;3.17;;;;;;;16.87;50.75;98372.50;1791102;78;21815;-80
2022/04/07 11:21:22;;;;;;;4.37;3.20;;;;;;;17.06;50.63;98364.23;1775913;80;21129;-81
2022/04/07 11:23:52;;;;;;;7.80;3.40;;;;;;;16.90;50.02;98359.96;1762076;80;21241;-82
2022/04/07 11:26:27;;;;;;;4.90;3.22;;;;;;;16.74;50.35;98357.45;1765273;80;21649;-80
2022/04/07 11:29:12;;;;;;;4.75;3.40;;;;;;;16.67;50.29;98355.52;1751376;80;21069;-81
2022/04/07 11:31:50;;;;;;;5.95;3.30;;;;;;;16.60;50.19;98349.17;1787979;78;22789;-81
2022/04/07 11:34:44;;;;;;;4.72;3.00;;;;;;;16.62;50.14;98335.36;1783292;78;21050;-81
2022/04/07 11:37:15;;;;;;;4.75;2.90;;;;;;;16.75;50.18;98331.31;1778135;80;21496;-89